»·PEaware :: SWA1077 KSNA-KSBA

SWA1077 :: KSNA-KSBA

FLIGHT INFORMATION

Flight Status: Arrived
Operator:
Southwest Airlines
More flights by this operator :: More flights under this callsign
Pilot: Martin A. (6413)
Aircraft: BOEING 737-800
(B738)
More flights by this aircraft type
Origin: KSNA John Wayne-Orange Co
United States
Destination: KSBA Santa Barbara Mun
United States
More flights between these airports :: More routes between these airports
Route: +CHANL3 SXC V208 VTU VTU282 KWANG
File this flight plan on PilotEdge
Remarks:
Altitude:
(Current/Filed)
14,000ft
Speed:
(Current/Filed)
480kts
Departed: 08-Sep-18 04:29 PM
Arrived: 08-Sep-18 05:17 PM
Distance/Time
Traveled:
108nm/0:48
Distance/Time
To Go:
Arrived

Flight Plot

Page will automatically refresh every two minutes.

Flight plan parsing failed; only flown route is shown


Map Options




Map Legend


Flown Route
Filed Route
Departure Airport
Arrival Airport
Navaid (VOR, NDB)
Fix

Horizontal Profiles

Position Reports

Time Latitude Longitude Heading Altitude Ground
Speed
08-Sep-18 16:09 33.676088 -117.864386 117 64ft 0kts
08-Sep-18 16:10 33.676088 -117.864386 117 63ft 0kts
08-Sep-18 16:11 33.676088 -117.864386 117 63ft 0kts
08-Sep-18 16:12 33.676088 -117.864386 117 63ft 0kts
08-Sep-18 16:13 33.676088 -117.864386 117 63ft 0kts
08-Sep-18 16:14 33.676088 -117.864386 117 63ft 0kts
08-Sep-18 16:15 33.676088 -117.864386 117 63ft 0kts
08-Sep-18 16:16 33.676088 -117.864386 117 63ft 0kts
08-Sep-18 16:17 33.676088 -117.864386 117 63ft 0kts
08-Sep-18 16:18 33.676088 -117.864386 117 63ft 0kts
08-Sep-18 16:19 33.676088 -117.864386 117 63ft 0kts
08-Sep-18 16:20 33.676088 -117.864386 117 63ft 0kts
08-Sep-18 16:21 33.676088 -117.864386 117 64ft 0kts
08-Sep-18 16:22 33.676119 -117.864453 117 64ft 2kts
08-Sep-18 16:23 33.676211 -117.865065 59 64ft 2kts
08-Sep-18 16:24 33.676021 -117.865262 26 64ft 0kts
08-Sep-18 16:25 33.676023 -117.865261 26 64ft 0kts
08-Sep-18 16:26 33.677633 -117.864280 27 64ft 8kts
08-Sep-18 16:27 33.679728 -117.862910 29 64ft 8kts
08-Sep-18 16:28 33.680624 -117.863047 302 64ft 0kts
08-Sep-18 16:29 33.680627 -117.863052 302 64ft 0kts
08-Sep-18 16:30 33.681253 -117.864427 298 64ft 8kts
08-Sep-18 16:31 33.670543 -117.872161 211 64ft 66kts
08-Sep-18 16:32 33.667548 -117.873949 24 64ft 12kts
08-Sep-18 16:33 33.671196 -117.868833 38 64ft 32kts
08-Sep-18 16:34 33.678825 -117.863501 27 64ft 30kts
08-Sep-18 16:35 33.680857 -117.863581 297 64ft 11kts
08-Sep-18 16:36 33.681142 -117.865386 208 64ft 16kts
08-Sep-18 16:37 33.648065 -117.882643 194 1267ft 183kts
08-Sep-18 16:38 33.588194 -117.895808 208 3317ft 252kts
08-Sep-18 16:39 33.525746 -117.945296 216 6285ft 281kts
08-Sep-18 16:40 33.459768 -117.998496 215 9499ft 294kts
08-Sep-18 16:41 33.392661 -118.055655 233 9985ft 293kts
08-Sep-18 16:42 33.377857 -118.148238 269 9921ft 288kts
08-Sep-18 16:43 33.376934 -118.243936 269 9912ft 288kts
08-Sep-18 16:44 33.375918 -118.339851 270 9919ft 287kts
08-Sep-18 16:45 33.382946 -118.433986 300 9933ft 286kts
08-Sep-18 16:46 33.434226 -118.507340 310 9916ft 288kts
08-Sep-18 16:47 33.486006 -118.580199 309 9916ft 288kts
08-Sep-18 16:48 33.536783 -118.652335 309 9920ft 288kts
08-Sep-18 16:49 33.588244 -118.725649 309 9913ft 288kts
08-Sep-18 16:50 33.639577 -118.798806 309 9913ft 287kts
08-Sep-18 16:51 33.691181 -118.872409 309 9907ft 287kts
08-Sep-18 16:52 33.742661 -118.945917 309 9922ft 287kts
08-Sep-18 16:53 33.798933 -119.012815 335 9933ft 289kts
08-Sep-18 16:54 33.879044 -119.025909 353 9916ft 293kts
08-Sep-18 16:55 33.957880 -119.033793 353 9910ft 282kts
08-Sep-18 16:56 34.035880 -119.041768 353 9914ft 282kts
08-Sep-18 16:57 34.110487 -119.059762 323 8921ft 272kts
08-Sep-18 16:58 34.151292 -119.133376 296 8054ft 270kts
08-Sep-18 16:59 34.184258 -119.212665 296 7233ft 263kts
08-Sep-18 17:00 34.217121 -119.291612 296 6365ft 257kts
08-Sep-18 17:01 34.249334 -119.369046 296 5918ft 259kts
08-Sep-18 17:02 34.280796 -119.444779 296 5907ft 238kts
08-Sep-18 17:03 34.310438 -119.516363 296 5917ft 238kts
08-Sep-18 17:04 34.338671 -119.588925 295 5924ft 238kts
08-Sep-18 17:05 34.363791 -119.659052 275 5378ft 227kts
08-Sep-18 17:06 34.323855 -119.707512 177 4533ft 239kts
08-Sep-18 17:07 34.280333 -119.652621 112 3990ft 241kts
08-Sep-18 17:08 34.254647 -119.577141 112 3990ft 243kts
08-Sep-18 17:09 34.228948 -119.501436 112 3982ft 243kts
08-Sep-18 17:10 34.250844 -119.435851 14 3995ft 231kts
08-Sep-18 17:11 34.300510 -119.468731 296 3994ft 222kts
08-Sep-18 17:12 34.325270 -119.536787 293 3983ft 220kts
08-Sep-18 17:13 34.348738 -119.602837 292 3518ft 203kts
08-Sep-18 17:14 34.369105 -119.660281 293 3010ft 166kts
08-Sep-18 17:15 34.386950 -119.710491 292 1739ft 161kts
08-Sep-18 17:16 34.404272 -119.759042 292 1134ft 156kts
08-Sep-18 17:17 34.420928 -119.805228 294 748ft 147kts
08-Sep-18 17:18 34.427628 -119.848631 268 20ft 51kts
08-Sep-18 17:19 34.426464 -119.851009 94 20ft 9kts
08-Sep-18 17:20 34.426602 -119.843790 88 20ft 33kts
08-Sep-18 17:21 34.426098 -119.838203 164 20ft 14kts
08-Sep-18 17:22 34.424299 -119.837022 105 20ft 0kts

Navigation Log

Ident Type
Flight plan parsing failed, navigation log unavailable